sensor_id;sensor_type;location;lat;lon;timestamp;temperature;humidity
14188;DHT22;7175;51.978;5.330;2022-07-23T00:01:38;16.10;99.90
14188;DHT22;7175;51.978;5.330;2022-07-23T00:04:09;16.10;99.90
14188;DHT22;7175;51.978;5.330;2022-07-23T00:06:41;16.10;99.90
14188;DHT22;7175;51.978;5.330;2022-07-23T00:09:10;16.20;99.90
14188;DHT22;7175;51.978;5.330;2022-07-23T00:11:38;16.20;99.90
14188;DHT22;7175;51.978;5.330;2022-07-23T00:14:28;16.20;99.90
14188;DHT22;7175;51.978;5.330;2022-07-23T00:17:05;16.30;99.90
14188;DHT22;7175;51.978;5.330;2022-07-23T00:19:34;16.30;99.90
14188;DHT22;7175;51.978;5.330;2022-07-23T00:22:05;16.40;99.90
14188;DHT22;7175;51.978;5.330;2022-07-23T00:24:34;16.30;99.90
14188;DHT22;7175;51.978;5.330;2022-07-23T00:27:03;16.30;99.90
14188;DHT22;7175;51.978;5.330;2022-07-23T00:29:34;16.40;99.90
14188;DHT22;7175;51.978;5.330;2022-07-23T00:32:04;16.30;99.90
14188;DHT22;7175;51.978;5.330;2022-07-23T00:34:34;16.30;99.90
14188;DHT22;7175;51.978;5.330;2022-07-23T00:37:02;16.30;99.90
14188;DHT22;7175;51.978;5.330;2022-07-23T00:39:34;16.30;99.90
14188;DHT22;7175;51.978;5.330;2022-07-23T00:42:04;16.30;99.90
14188;DHT22;7175;51.978;5.330;2022-07-23T00:44:40;16.30;99.90
14188;DHT22;7175;51.978;5.330;2022-07-23T00:47:13;16.40;99.90
14188;DHT22;7175;51.978;5.330;2022-07-23T00:49:45;16.40;99.90
14188;DHT22;7175;51.978;5.330;2022-07-23T00:52:15;16.40;99.90
14188;DHT22;7175;51.978;5.330;2022-07-23T00:54:43;16.40;99.90
14188;DHT22;7175;51.978;5.330;2022-07-23T00:57:37;16.40;99.90
14188;DHT22;7175;51.978;5.330;2022-07-23T01:00:11;16.40;99.90
14188;DHT22;7175;51.978;5.330;2022-07-23T01:02:48;16.30;99.90
14188;DHT22;7175;51.978;5.330;2022-07-23T01:05:18;16.30;99.90
14188;DHT22;7175;51.978;5.330;2022-07-23T01:07:56;16.20;99.90
14188;DHT22;7175;51.978;5.330;2022-07-23T01:10:26;16.20;99.90
14188;DHT22;7175;51.978;5.330;2022-07-23T01:13:08;16.20;99.90
14188;DHT22;7175;51.978;5.330;2022-07-23T01:15:53;16.20;99.90
14188;DHT22;7175;51.978;5.330;2022-07-23T01:18:23;16.10;99.90
14188;DHT22;7175;51.978;5.330;2022-07-23T01:20:51;16.20;99.90
14188;DHT22;7175;51.978;5.330;2022-07-23T01:23:21;16.10;99.90
14188;DHT22;7175;51.978;5.330;2022-07-23T01:25:53;16.00;99.90
14188;DHT22;7175;51.978;5.330;2022-07-23T01:28:24;16.00;99.90
14188;DHT22;7175;51.978;5.330;2022-07-23T01:30:57;16.00;99.90
14188;DHT22;7175;51.978;5.330;2022-07-23T01:33:32;15.90;99.90
14188;DHT22;7175;51.978;5.330;2022-07-23T01:36:02;15.80;99.90
14188;DHT22;7175;51.978;5.330;2022-07-23T01:38:38;15.70;99.90
14188;DHT22;7175;51.978;5.330;2022-07-23T01:41:07;15.70;99.90
14188;DHT22;7175;51.978;5.330;2022-07-23T01:43:37;15.60;99.90
14188;DHT22;7175;51.978;5.330;2022-07-23T01:46:13;15.60;99.90
14188;DHT22;7175;51.978;5.330;2022-07-23T01:48:48;15.60;99.90
14188;DHT22;7175;51.978;5.330;2022-07-23T01:51:17;15.60;99.90
14188;DHT22;7175;51.978;5.330;2022-07-23T01:53:47;15.50;99.90
14188;DHT22;7175;51.978;5.330;2022-07-23T01:56:17;15.50;99.90
14188;DHT22;7175;51.978;5.330;2022-07-23T01:58:50;15.50;99.90
14188;DHT22;7175;51.978;5.330;2022-07-23T02:01:24;15.50;99.90
14188;DHT22;7175;51.978;5.330;2022-07-23T02:03:53;15.40;99.90
14188;DHT22;7175;51.978;5.330;2022-07-23T02:06:21;15.40;99.90
14188;DHT22;7175;51.978;5.330;2022-07-23T02:08:52;15.40;99.90
14188;DHT22;7175;51.978;5.330;2022-07-23T02:11:21;15.30;99.90
14188;DHT22;7175;51.978;5.330;2022-07-23T02:13:51;15.30;99.90
14188;DHT22;7175;51.978;5.330;2022-07-23T02:16:27;15.30;99.90
14188;DHT22;7175;51.978;5.330;2022-07-23T02:19:04;15.30;99.90
14188;DHT22;7175;51.978;5.330;2022-07-23T02:21:32;15.30;99.90
14188;DHT22;7175;51.978;5.330;2022-07-23T02:24:03;15.20;99.90
14188;DHT22;7175;51.978;5.330;2022-07-23T02:26:32;15.20;99.90
14188;DHT22;7175;51.978;5.330;2022-07-23T02:29:02;15.10;99.90
14188;DHT22;7175;51.978;5.330;2022-07-23T02:31:33;15.00;99.90
14188;DHT22;7175;51.978;5.330;2022-07-23T02:34:02;15.00;99.90
14188;DHT22;7175;51.978;5.330;2022-07-23T02:36:45;15.00;99.90
14188;DHT22;7175;51.978;5.330;2022-07-23T02:39:17;15.00;99.90
14188;DHT22;7175;51.978;5.330;2022-07-23T02:41:46;14.90;99.90
14188;DHT22;7175;51.978;5.330;2022-07-23T02:44:15;14.80;99.90
14188;DHT22;7175;51.978;5.330;2022-07-23T02:46:49;14.80;99.90
14188;DHT22;7175;51.978;5.330;2022-07-23T02:49:19;14.80;99.90
14188;DHT22;7175;51.978;5.330;2022-07-23T02:51:48;14.80;99.90
14188;DHT22;7175;51.978;5.330;2022-07-23T02:54:19;14.80;99.90
14188;DHT22;7175;51.978;5.330;2022-07-23T02:56:49;14.80;99.90
14188;DHT22;7175;51.978;5.330;2022-07-23T02:59:25;14.70;99.90
14188;DHT22;7175;51.978;5.330;2022-07-23T03:01:53;14.70;99.90
14188;DHT22;7175;51.978;5.330;2022-07-23T03:04:24;14.60;99.90
14188;DHT22;7175;51.978;5.330;2022-07-23T03:06:53;14.60;99.90
14188;DHT22;7175;51.978;5.330;2022-07-23T03:09:25;14.50;99.90
14188;DHT22;7175;51.978;5.330;2022-07-23T03:12:02;14.50;99.90
14188;DHT22;7175;51.978;5.330;2022-07-23T03:14:38;14.40;99.90
14188;DHT22;7175;51.978;5.330;2022-07-23T03:17:08;14.40;99.90
14188;DHT22;7175;51.978;5.330;2022-07-23T03:19:42;14.40;99.90
14188;DHT22;7175;51.978;5.330;2022-07-23T03:22:11;14.40;99.90
14188;DHT22;7175;51.978;5.330;2022-07-23T03:24:41;14.30;99.90
14188;DHT22;7175;51.978;5.330;2022-07-23T03:27:37;14.30;99.90
14188;DHT22;7175;51.978;5.330;2022-07-23T03:30:09;14.30;99.90
14188;DHT22;7175;51.978;5.330;2022-07-23T03:32:43;14.30;99.90
14188;DHT22;7175;51.978;5.330;2022-07-23T03:35:14;14.20;99.90
14188;DHT22;7175;51.978;5.330;2022-07-23T03:37:44;14.20;99.90
14188;DHT22;7175;51.978;5.330;2022-07-23T03:40:15;14.20;99.90
14188;DHT22;7175;51.978;5.330;2022-07-23T03:42:54;14.10;99.90
14188;DHT22;7175;51.978;5.330;2022-07-23T03:45:24;14.10;99.90
14188;DHT22;7175;51.978;5.330;2022-07-23T03:47:53;14.00;99.90
14188;DHT22;7175;51.978;5.330;2022-07-23T03:50:29;13.90;99.90
14188;DHT22;7175;51.978;5.330;2022-07-23T03:53:21;13.90;99.90
14188;DHT22;7175;51.978;5.330;2022-07-23T03:55:53;13.90;99.90
14188;DHT22;7175;51.978;5.330;2022-07-23T03:58:23;13.80;99.90
14188;DHT22;7175;51.978;5.330;2022-07-23T04:01:03;13.80;99.90
14188;DHT22;7175;51.978;5.330;2022-07-23T04:03:40;13.80;99.90
14188;DHT22;7175;51.978;5.330;2022-07-23T04:06:15;13.80;99.90
14188;DHT22;7175;51.978;5.330;2022-07-23T04:08:53;13.80;99.90
14188;DHT22;7175;51.978;5.330;2022-07-23T04:11:28;13.80;99.90
14188;DHT22;7175;51.978;5.330;2022-07-23T04:13:59;13.90;99.90
14188;DHT22;7175;51.978;5.330;2022-07-23T04:16:28;13.90;99.90
14188;DHT22;7175;51.978;5.330;2022-07-23T04:18:58;13.90;99.90
14188;DHT22;7175;51.978;5.330;2022-07-23T04:21:27;13.90;99.90
14188;DHT22;7175;51.978;5.330;2022-07-23T04:23:56;14.00;99.90
14188;DHT22;7175;51.978;5.330;2022-07-23T04:26:25;14.00;99.90
14188;DHT22;7175;51.978;5.330;2022-07-23T04:28:56;14.00;99.90
14188;DHT22;7175;51.978;5.330;2022-07-23T04:31:26;14.10;99.90
14188;DHT22;7175;51.978;5.330;2022-07-23T04:34:01;14.10;99.90
14188;DHT22;7175;51.978;5.330;2022-07-23T04:36:31;14.10;99.90
14188;DHT22;7175;51.978;5.330;2022-07-23T04:39:00;14.00;99.90
14188;DHT22;7175;51.978;5.330;2022-07-23T04:41:30;14.10;99.90
14188;DHT22;7175;51.978;5.330;2022-07-23T04:44:00;14.10;99.90
14188;DHT22;7175;51.978;5.330;2022-07-23T04:46:30;14.20;99.90
14188;DHT22;7175;51.978;5.330;2022-07-23T04:49:00;14.20;99.90
14188;DHT22;7175;51.978;5.330;2022-07-23T04:51:32;14.20;99.90
14188;DHT22;7175;51.978;5.330;2022-07-23T04:54:07;14.20;99.90
14188;DHT22;7175;51.978;5.330;2022-07-23T04:56:41;14.20;99.90
14188;DHT22;7175;51.978;5.330;2022-07-23T04:59:23;14.30;99.90
14188;DHT22;7175;51.978;5.330;2022-07-23T05:01:59;14.30;99.90
14188;DHT22;7175;51.978;5.330;2022-07-23T05:04:27;14.30;99.90
14188;DHT22;7175;51.978;5.330;2022-07-23T05:07:03;14.40;99.90
14188;DHT22;7175;51.978;5.330;2022-07-23T05:09:32;14.40;99.90
14188;DHT22;7175;51.978;5.330;2022-07-23T05:12:01;14.50;99.90
14188;DHT22;7175;51.978;5.330;2022-07-23T05:14:54;14.50;99.90
14188;DHT22;7175;51.978;5.330;2022-07-23T05:17:24;14.50;99.90
14188;DHT22;7175;51.978;5.330;2022-07-23T05:19:53;14.60;99.90
14188;DHT22;7175;51.978;5.330;2022-07-23T05:22:28;14.70;99.90
14188;DHT22;7175;51.978;5.330;2022-07-23T05:24:58;14.80;99.90
14188;DHT22;7175;51.978;5.330;2022-07-23T05:27:27;14.80;99.90
14188;DHT22;7175;51.978;5.330;2022-07-23T05:29:57;14.80;99.90
14188;DHT22;7175;51.978;5.330;2022-07-23T05:32:27;14.90;99.90
14188;DHT22;7175;51.978;5.330;2022-07-23T05:34:58;15.00;99.90
14188;DHT22;7175;51.978;5.330;2022-07-23T05:37:26;15.00;99.90
14188;DHT22;7175;51.978;5.330;2022-07-23T05:39:55;15.10;99.90
14188;DHT22;7175;51.978;5.330;2022-07-23T05:42:23;15.20;99.90
14188;DHT22;7175;51.978;5.330;2022-07-23T05:45:00;15.30;99.90
14188;DHT22;7175;51.978;5.330;2022-07-23T05:47:41;15.30;99.90
14188;DHT22;7175;51.978;5.330;2022-07-23T05:50:20;15.50;99.90
14188;DHT22;7175;51.978;5.330;2022-07-23T05:52:59;15.70;99.90
14188;DHT22;7175;51.978;5.330;2022-07-23T05:55:29;15.80;99.90
14188;DHT22;7175;51.978;5.330;2022-07-23T05:58:02;16.00;99.90
14188;DHT22;7175;51.978;5.330;2022-07-23T06:00:34;16.20;99.90
14188;DHT22;7175;51.978;5.330;2022-07-23T06:03:03;16.70;99.90
14188;DHT22;7175;51.978;5.330;2022-07-23T06:05:32;17.40;99.90
14188;DHT22;7175;51.978;5.330;2022-07-23T06:08:00;17.90;99.90
14188;DHT22;7175;51.978;5.330;2022-07-23T06:10:29;18.50;99.90
14188;DHT22;7175;51.978;5.330;2022-07-23T06:12:58;18.90;99.90
14188;DHT22;7175;51.978;5.330;2022-07-23T06:15:36;19.20;99.90
14188;DHT22;7175;51.978;5.330;2022-07-23T06:18:05;19.50;99.90
14188;DHT22;7175;51.978;5.330;2022-07-23T06:20:33;19.40;99.90
14188;DHT22;7175;51.978;5.330;2022-07-23T06:23:06;19.20;99.90
14188;DHT22;7175;51.978;5.330;2022-07-23T06:25:35;19.30;99.90
14188;DHT22;7175;51.978;5.330;2022-07-23T06:28:09;19.30;99.90
14188;DHT22;7175;51.978;5.330;2022-07-23T06:30:40;19.20;99.90
14188;DHT22;7175;51.978;5.330;2022-07-23T06:33:10;19.00;99.90
14188;DHT22;7175;51.978;5.330;2022-07-23T06:35:48;18.90;99.90
14188;DHT22;7175;51.978;5.330;2022-07-23T06:38:24;18.90;99.90
14188;DHT22;7175;51.978;5.330;2022-07-23T06:40:59;19.10;99.90
14188;DHT22;7175;51.978;5.330;2022-07-23T06:43:34;19.10;99.90
14188;DHT22;7175;51.978;5.330;2022-07-23T06:46:12;19.10;99.90
14188;DHT22;7175;51.978;5.330;2022-07-23T06:48:40;19.20;99.90
14188;DHT22;7175;51.978;5.330;2022-07-23T06:51:24;19.20;99.90
14188;DHT22;7175;51.978;5.330;2022-07-23T06:54:01;19.30;99.90
14188;DHT22;7175;51.978;5.330;2022-07-23T06:56:30;19.20;99.90
14188;DHT22;7175;51.978;5.330;2022-07-23T06:59:04;19.20;99.90
14188;DHT22;7175;51.978;5.330;2022-07-23T07:01:36;19.20;99.90
14188;DHT22;7175;51.978;5.330;2022-07-23T07:04:06;19.10;99.90
14188;DHT22;7175;51.978;5.330;2022-07-23T07:06:36;19.30;99.90
14188;DHT22;7175;51.978;5.330;2022-07-23T07:09:04;19.40;99.90
14188;DHT22;7175;51.978;5.330;2022-07-23T07:11:46;19.70;99.90
14188;DHT22;7175;51.978;5.330;2022-07-23T07:14:30;19.50;99.90
14188;DHT22;7175;51.978;5.330;2022-07-23T07:17:10;19.70;99.90
14188;DHT22;7175;51.978;5.330;2022-07-23T07:19:40;19.50;99.90
14188;DHT22;7175;51.978;5.330;2022-07-23T07:22:11;19.60;99.90
14188;DHT22;7175;51.978;5.330;2022-07-23T07:24:41;19.90;99.90
14188;DHT22;7175;51.978;5.330;2022-07-23T07:27:11;19.90;99.90
14188;DHT22;7175;51.978;5.330;2022-07-23T07:29:40;20.10;99.90
14188;DHT22;7175;51.978;5.330;2022-07-23T07:32:11;20.40;99.90
14188;DHT22;7175;51.978;5.330;2022-07-23T07:35:00;20.40;99.90
14188;DHT22;7175;51.978;5.330;2022-07-23T07:37:28;20.20;99.90
14188;DHT22;7175;51.978;5.330;2022-07-23T07:39:57;20.40;99.90
14188;DHT22;7175;51.978;5.330;2022-07-23T07:42:26;20.80;99.90
14188;DHT22;7175;51.978;5.330;2022-07-23T07:45:02;21.00;99.90
14188;DHT22;7175;51.978;5.330;2022-07-23T07:47:37;20.60;99.90
14188;DHT22;7175;51.978;5.330;2022-07-23T07:50:09;21.00;99.90
14188;DHT22;7175;51.978;5.330;2022-07-23T07:52:38;21.10;99.90
14188;DHT22;7175;51.978;5.330;2022-07-23T07:55:15;20.90;99.90
14188;DHT22;7175;51.978;5.330;2022-07-23T07:57:46;21.20;99.90
14188;DHT22;7175;51.978;5.330;2022-07-23T08:00:16;21.30;99.90
14188;DHT22;7175;51.978;5.330;2022-07-23T08:02:57;21.50;99.90
14188;DHT22;7175;51.978;5.330;2022-07-23T08:05:32;21.60;99.90
14188;DHT22;7175;51.978;5.330;2022-07-23T08:08:06;21.70;99.90
14188;DHT22;7175;51.978;5.330;2022-07-23T08:10:52;21.70;99.90
14188;DHT22;7175;51.978;5.330;2022-07-23T08:13:21;21.60;99.90
14188;DHT22;7175;51.978;5.330;2022-07-23T08:16:00;21.40;99.90
14188;DHT22;7175;51.978;5.330;2022-07-23T08:18:38;21.00;99.90
14188;DHT22;7175;51.978;5.330;2022-07-23T08:21:07;20.60;99.90
14188;DHT22;7175;51.978;5.330;2022-07-23T08:23:40;20.90;99.90
14188;DHT22;7175;51.978;5.330;2022-07-23T08:26:10;21.00;99.90
14188;DHT22;7175;51.978;5.330;2022-07-23T08:28:43;21.20;99.90
14188;DHT22;7175;51.978;5.330;2022-07-23T08:31:13;21.50;99.90
14188;DHT22;7175;51.978;5.330;2022-07-23T08:33:46;22.10;99.90
14188;DHT22;7175;51.978;5.330;2022-07-23T08:36:17;22.10;99.90
14188;DHT22;7175;51.978;5.330;2022-07-23T08:38:46;22.00;99.90
14188;DHT22;7175;51.978;5.330;2022-07-23T08:41:14;22.20;99.90
14188;DHT22;7175;51.978;5.330;2022-07-23T08:43:53;22.10;99.90
14188;DHT22;7175;51.978;5.330;2022-07-23T08:46:24;22.10;99.90
14188;DHT22;7175;51.978;5.330;2022-07-23T08:48:55;22.30;99.90
14188;DHT22;7175;51.978;5.330;2022-07-23T08:51:32;22.40;99.90
14188;DHT22;7175;51.978;5.330;2022-07-23T08:54:01;22.80;99.90
14188;DHT22;7175;51.978;5.330;2022-07-23T08:56:32;23.00;99.90
14188;DHT22;7175;51.978;5.330;2022-07-23T08:59:02;22.50;99.90
14188;DHT22;7175;51.978;5.330;2022-07-23T09:01:40;22.70;99.90
14188;DHT22;7175;51.978;5.330;2022-07-23T09:04:12;23.00;99.90
14188;DHT22;7175;51.978;5.330;2022-07-23T09:06:41;23.20;99.90
14188;DHT22;7175;51.978;5.330;2022-07-23T09:09:19;22.90;99.70
14188;DHT22;7175;51.978;5.330;2022-07-23T09:12:02;23.20;99.90
14188;DHT22;7175;51.978;5.330;2022-07-23T09:14:53;23.40;99.90
14188;DHT22;7175;51.978;5.330;2022-07-23T09:17:24;23.60;98.70
14188;DHT22;7175;51.978;5.330;2022-07-23T09:20:09;23.50;98.80
14188;DHT22;7175;51.978;5.330;2022-07-23T09:22:45;23.50;99.10
14188;DHT22;7175;51.978;5.330;2022-07-23T09:25:18;23.20;96.60
14188;DHT22;7175;51.978;5.330;2022-07-23T09:28:06;23.20;97.00
14188;DHT22;7175;51.978;5.330;2022-07-23T09:30:36;23.70;97.60
14188;DHT22;7175;51.978;5.330;2022-07-23T09:33:16;23.50;96.00
14188;DHT22;7175;51.978;5.330;2022-07-23T09:35:54;23.50;97.20
14188;DHT22;7175;51.978;5.330;2022-07-23T09:38:30;23.90;96.40
14188;DHT22;7175;51.978;5.330;2022-07-23T09:41:10;24.00;96.20
14188;DHT22;7175;51.978;5.330;2022-07-23T09:43:42;24.30;96.10
14188;DHT22;7175;51.978;5.330;2022-07-23T09:46:21;24.50;95.50
14188;DHT22;7175;51.978;5.330;2022-07-23T09:48:57;24.50;94.30
14188;DHT22;7175;51.978;5.330;2022-07-23T09:51:27;24.20;95.20
14188;DHT22;7175;51.978;5.330;2022-07-23T09:54:04;24.30;95.40
14188;DHT22;7175;51.978;5.330;2022-07-23T09:56:35;24.50;93.40
14188;DHT22;7175;51.978;5.330;2022-07-23T09:59:11;24.70;94.90
14188;DHT22;7175;51.978;5.330;2022-07-23T10:01:40;25.20;94.50
14188;DHT22;7175;51.978;5.330;2022-07-23T10:04:21;25.20;93.10
14188;DHT22;7175;51.978;5.330;2022-07-23T10:07:00;25.10;93.20
14188;DHT22;7175;51.978;5.330;2022-07-23T10:09:33;24.80;92.80
14188;DHT22;7175;51.978;5.330;2022-07-23T10:12:10;25.10;92.90
14188;DHT22;7175;51.978;5.330;2022-07-23T10:14:56;25.00;93.00
14188;DHT22;7175;51.978;5.330;2022-07-23T10:17:40;25.30;92.30
14188;DHT22;7175;51.978;5.330;2022-07-23T10:20:09;25.30;91.20
14188;DHT22;7175;51.978;5.330;2022-07-23T10:22:47;25.40;90.60
14188;DHT22;7175;51.978;5.330;2022-07-23T10:25:31;25.50;89.50
14188;DHT22;7175;51.978;5.330;2022-07-23T10:28:31;24.90;91.00
14188;DHT22;7175;51.978;5.330;2022-07-23T10:31:07;24.90;89.20
14188;DHT22;7175;51.978;5.330;2022-07-23T10:34:06;24.50;90.40
14188;DHT22;7175;51.978;5.330;2022-07-23T10:36:42;25.50;90.70
14188;DHT22;7175;51.978;5.330;2022-07-23T10:39:39;25.80;90.40
14188;DHT22;7175;51.978;5.330;2022-07-23T10:42:09;25.90;88.90
14188;DHT22;7175;51.978;5.330;2022-07-23T10:44:41;25.80;89.50
14188;DHT22;7175;51.978;5.330;2022-07-23T10:47:13;26.10;90.10
14188;DHT22;7175;51.978;5.330;2022-07-23T10:50:38;25.90;88.90
14188;DHT22;7175;51.978;5.330;2022-07-23T10:53:22;26.50;87.30
14188;DHT22;7175;51.978;5.330;2022-07-23T10:56:19;26.60;83.80
14188;DHT22;7175;51.978;5.330;2022-07-23T10:59:12;26.90;83.80
14188;DHT22;7175;51.978;5.330;2022-07-23T11:05:09;25.90;78.20
14188;DHT22;7175;51.978;5.330;2022-07-23T11:10:53;26.20;84.10
14188;DHT22;7175;51.978;5.330;2022-07-23T11:13:56;26.90;81.60
14188;DHT22;7175;51.978;5.330;2022-07-23T11:16:28;27.10;78.00
14188;DHT22;7175;51.978;5.330;2022-07-23T11:19:07;27.20;76.70
14188;DHT22;7175;51.978;5.330;2022-07-23T11:21:52;26.40;70.70
14188;DHT22;7175;51.978;5.330;2022-07-23T11:24:23;26.90;76.00
14188;DHT22;7175;51.978;5.330;2022-07-23T11:27:16;27.50;76.20
14188;DHT22;7175;51.978;5.330;2022-07-23T11:30:38;27.20;75.20
14188;DHT22;7175;51.978;5.330;2022-07-23T11:33:21;27.60;76.50
14188;DHT22;7175;51.978;5.330;2022-07-23T11:36:03;27.30;74.50
14188;DHT22;7175;51.978;5.330;2022-07-23T11:39:05;26.80;69.30
14188;DHT22;7175;51.978;5.330;2022-07-23T11:41:43;26.50;69.70
14188;DHT22;7175;51.978;5.330;2022-07-23T11:44:25;26.60;73.00
14188;DHT22;7175;51.978;5.330;2022-07-23T11:50:08;27.90;76.70
14188;DHT22;7175;51.978;5.330;2022-07-23T11:52:36;28.00;74.70
14188;DHT22;7175;51.978;5.330;2022-07-23T11:55:10;27.90;76.10
14188;DHT22;7175;51.978;5.330;2022-07-23T11:57:41;27.80;73.70
14188;DHT22;7175;51.978;5.330;2022-07-23T12:00:21;27.90;75.70
14188;DHT22;7175;51.978;5.330;2022-07-23T12:02:53;28.40;75.70
14188;DHT22;7175;51.978;5.330;2022-07-23T12:05:35;28.30;74.00
14188;DHT22;7175;51.978;5.330;2022-07-23T12:11:06;28.50;74.50
14188;DHT22;7175;51.978;5.330;2022-07-23T12:14:09;28.70;71.00
14188;DHT22;7175;51.978;5.330;2022-07-23T12:17:06;28.30;70.40
14188;DHT22;7175;51.978;5.330;2022-07-23T12:19:52;28.50;74.90
14188;DHT22;7175;51.978;5.330;2022-07-23T12:22:49;28.80;73.10
14188;DHT22;7175;51.978;5.330;2022-07-23T12:28:28;28.60;75.60
14188;DHT22;7175;51.978;5.330;2022-07-23T12:34:38;28.20;67.90
14188;DHT22;7175;51.978;5.330;2022-07-23T12:39:55;29.40;65.00
14188;DHT22;7175;51.978;5.330;2022-07-23T12:42:24;28.80;63.80
14188;DHT22;7175;51.978;5.330;2022-07-23T12:45:12;29.00;68.20
14188;DHT22;7175;51.978;5.330;2022-07-23T12:47:52;28.90;68.00
14188;DHT22;7175;51.978;5.330;2022-07-23T12:53:40;29.50;65.70
14188;DHT22;7175;51.978;5.330;2022-07-23T12:56:18;29.60;65.00
14188;DHT22;7175;51.978;5.330;2022-07-23T12:58:55;29.20;68.70
14188;DHT22;7175;51.978;5.330;2022-07-23T13:01:30;29.70;65.40
14188;DHT22;7175;51.978;5.330;2022-07-23T13:04:11;30.10;65.90
14188;DHT22;7175;51.978;5.330;2022-07-23T13:06:43;29.70;60.50
14188;DHT22;7175;51.978;5.330;2022-07-23T13:09:14;29.00;59.30
14188;DHT22;7175;51.978;5.330;2022-07-23T13:11:56;29.30;60.10
14188;DHT22;7175;51.978;5.330;2022-07-23T13:14:28;29.80;62.90
14188;DHT22;7175;51.978;5.330;2022-07-23T13:16:58;29.90;61.10
14188;DHT22;7175;51.978;5.330;2022-07-23T13:19:26;30.10;61.30
14188;DHT22;7175;51.978;5.330;2022-07-23T13:21:55;30.30;58.30
14188;DHT22;7175;51.978;5.330;2022-07-23T13:24:24;29.30;58.50
14188;DHT22;7175;51.978;5.330;2022-07-23T13:27:02;29.80;59.00
14188;DHT22;7175;51.978;5.330;2022-07-23T13:29:39;30.30;60.30
14188;DHT22;7175;51.978;5.330;2022-07-23T13:32:15;29.60;58.00
14188;DHT22;7175;51.978;5.330;2022-07-23T13:34:45;29.80;61.10
14188;DHT22;7175;51.978;5.330;2022-07-23T13:41:05;29.40;58.90
14188;DHT22;7175;51.978;5.330;2022-07-23T13:44:01;29.80;57.30
14188;DHT22;7175;51.978;5.330;2022-07-23T13:46:52;29.60;59.50
14188;DHT22;7175;51.978;5.330;2022-07-23T13:49:20;30.50;58.50
14188;DHT22;7175;51.978;5.330;2022-07-23T13:52:05;30.90;58.60
14188;DHT22;7175;51.978;5.330;2022-07-23T13:54:58;30.70;55.40
14188;DHT22;7175;51.978;5.330;2022-07-23T13:57:32;29.80;55.20
14188;DHT22;7175;51.978;5.330;2022-07-23T14:00:03;30.00;58.70
14188;DHT22;7175;51.978;5.330;2022-07-23T14:06:15;30.00;59.60
14188;DHT22;7175;51.978;5.330;2022-07-23T14:12:36;28.80;56.80
14188;DHT22;7175;51.978;5.330;2022-07-23T14:15:17;28.40;57.80
14188;DHT22;7175;51.978;5.330;2022-07-23T14:17:59;29.50;57.60
14188;DHT22;7175;51.978;5.330;2022-07-23T14:20:33;29.60;57.70
14188;DHT22;7175;51.978;5.330;2022-07-23T14:23:28;29.90;54.50
14188;DHT22;7175;51.978;5.330;2022-07-23T14:26:15;30.00;55.10
14188;DHT22;7175;51.978;5.330;2022-07-23T14:28:59;29.80;57.30
14188;DHT22;7175;51.978;5.330;2022-07-23T14:31:53;30.80;57.80
14188;DHT22;7175;51.978;5.330;2022-07-23T14:38:09;30.60;56.00
14188;DHT22;7175;51.978;5.330;2022-07-23T14:44:26;30.60;55.30
14188;DHT22;7175;51.978;5.330;2022-07-23T14:46:59;30.20;55.60
14188;DHT22;7175;51.978;5.330;2022-07-23T14:52:31;30.10;55.60
14188;DHT22;7175;51.978;5.330;2022-07-23T14:58:32;29.80;56.40
14188;DHT22;7175;51.978;5.330;2022-07-23T15:08:08;29.30;57.40
14188;DHT22;7175;51.978;5.330;2022-07-23T15:10:40;28.90;59.40
14188;DHT22;7175;51.978;5.330;2022-07-23T15:13:35;28.80;59.20
14188;DHT22;7175;51.978;5.330;2022-07-23T15:16:04;28.70;59.30
14188;DHT22;7175;51.978;5.330;2022-07-23T15:18:39;28.50;59.30
14188;DHT22;7175;51.978;5.330;2022-07-23T15:21:32;28.40;58.90
14188;DHT22;7175;51.978;5.330;2022-07-23T15:24:25;28.10;62.30
14188;DHT22;7175;51.978;5.330;2022-07-23T15:27:12;28.20;62.20
14188;DHT22;7175;51.978;5.330;2022-07-23T15:37:15;27.90;65.20
14188;DHT22;7175;51.978;5.330;2022-07-23T15:39:45;27.90;65.60
14188;DHT22;7175;51.978;5.330;2022-07-23T15:42:46;27.70;63.30
14188;DHT22;7175;51.978;5.330;2022-07-23T15:45:30;27.40;65.70
14188;DHT22;7175;51.978;5.330;2022-07-23T15:51:28;27.00;67.20
14188;DHT22;7175;51.978;5.330;2022-07-23T15:54:07;26.60;65.20
14188;DHT22;7175;51.978;5.330;2022-07-23T15:56:47;26.70;67.90
14188;DHT22;7175;51.978;5.330;2022-07-23T15:59:31;26.50;65.50
14188;DHT22;7175;51.978;5.330;2022-07-23T16:02:14;26.20;65.60
14188;DHT22;7175;51.978;5.330;2022-07-23T16:04:54;26.10;71.10
14188;DHT22;7175;51.978;5.330;2022-07-23T16:08:01;26.40;72.40
14188;DHT22;7175;51.978;5.330;2022-07-23T16:10:35;26.40;72.80
14188;DHT22;7175;51.978;5.330;2022-07-23T16:13:11;26.30;72.60
14188;DHT22;7175;51.978;5.330;2022-07-23T16:19:27;26.30;73.50
14188;DHT22;7175;51.978;5.330;2022-07-23T16:21:56;26.30;71.70
14188;DHT22;7175;51.978;5.330;2022-07-23T16:24:24;25.90;70.90
14188;DHT22;7175;51.978;5.330;2022-07-23T16:26:54;26.00;71.10
14188;DHT22;7175;51.978;5.330;2022-07-23T16:29:23;25.90;70.00
14188;DHT22;7175;51.978;5.330;2022-07-23T16:31:52;25.90;72.90
14188;DHT22;7175;51.978;5.330;2022-07-23T16:34:40;25.90;70.90
14188;DHT22;7175;51.978;5.330;2022-07-23T16:40:50;25.70;72.10
14188;DHT22;7175;51.978;5.330;2022-07-23T16:46:45;25.60;72.40
14188;DHT22;7175;51.978;5.330;2022-07-23T16:49:18;25.20;72.40
14188;DHT22;7175;51.978;5.330;2022-07-23T16:51:57;25.30;74.70
14188;DHT22;7175;51.978;5.330;2022-07-23T16:54:52;25.60;75.70
14188;DHT22;7175;51.978;5.330;2022-07-23T16:57:26;25.70;76.60
14188;DHT22;7175;51.978;5.330;2022-07-23T17:00:08;25.80;76.90
14188;DHT22;7175;51.978;5.330;2022-07-23T17:02:52;25.50;75.80
14188;DHT22;7175;51.978;5.330;2022-07-23T17:05:22;25.40;76.60
14188;DHT22;7175;51.978;5.330;2022-07-23T17:08:04;25.40;78.40
14188;DHT22;7175;51.978;5.330;2022-07-23T17:10:51;25.50;79.40
14188;DHT22;7175;51.978;5.330;2022-07-23T17:16:51;25.50;76.60
14188;DHT22;7175;51.978;5.330;2022-07-23T17:19:31;25.30;74.90
14188;DHT22;7175;51.978;5.330;2022-07-23T17:21:59;25.10;75.60
14188;DHT22;7175;51.978;5.330;2022-07-23T17:31:20;25.50;80.10
14188;DHT22;7175;51.978;5.330;2022-07-23T17:33:48;25.70;79.60
14188;DHT22;7175;51.978;5.330;2022-07-23T17:36:27;25.60;79.20
14188;DHT22;7175;51.978;5.330;2022-07-23T17:39:29;25.60;80.60
14188;DHT22;7175;51.978;5.330;2022-07-23T17:42:27;25.40;79.50
14188;DHT22;7175;51.978;5.330;2022-07-23T17:44:58;25.40;81.30
14188;DHT22;7175;51.978;5.330;2022-07-23T17:48:03;25.40;81.30
14188;DHT22;7175;51.978;5.330;2022-07-23T17:50:47;25.40;81.40
14188;DHT22;7175;51.978;5.330;2022-07-23T17:53:32;25.30;80.90
14188;DHT22;7175;51.978;5.330;2022-07-23T17:56:01;25.30;82.30
14188;DHT22;7175;51.978;5.330;2022-07-23T18:02:12;25.20;83.70
14188;DHT22;7175;51.978;5.330;2022-07-23T18:11:27;25.10;84.60
14188;DHT22;7175;51.978;5.330;2022-07-23T18:14:12;25.00;87.60
14188;DHT22;7175;51.978;5.330;2022-07-23T18:20:14;24.80;88.30
14188;DHT22;7175;51.978;5.330;2022-07-23T18:26:57;24.50;90.70